createdAt,value
2023-10-26T00:00:46.086Z,11.02
2023-10-26T00:03:13.445Z,12.15
2023-10-26T00:05:41.076Z,13.48
2023-10-26T00:08:08.531Z,15.48
2023-10-26T00:10:36.004Z,8.50
2023-10-26T00:13:03.289Z,11.10
2023-10-26T00:15:30.720Z,10.30
2023-10-26T00:17:58.051Z,11.50
2023-10-26T00:20:25.336Z,10.80
2023-10-26T00:22:52.608Z,12.00
2023-10-26T00:25:20.068Z,13.00
2023-10-26T00:27:47.306Z,12.48
2023-10-26T00:30:14.856Z,11.60
2023-10-26T00:32:42.949Z,10.35
2023-10-26T00:35:10.410Z,12.20
2023-10-26T00:37:37.657Z,14.05
2023-10-26T00:40:05.289Z,14.70
2023-10-26T00:42:32.604Z,12.23
2023-10-26T00:44:59.934Z,15.73
2023-10-26T00:47:27.681Z,10.25
2023-10-26T00:49:55.751Z,12.40
2023-10-26T00:52:23.548Z,12.73
2023-10-26T00:54:50.961Z,13.02
2023-10-26T00:57:19.624Z,16.05
2023-10-26T00:59:47.645Z,14.23
2023-10-26T01:02:16.868Z,17.98
2023-10-26T01:04:44.553Z,12.75
2023-10-26T01:07:11.922Z,19.52
2023-10-26T01:09:39.256Z,13.85
2023-10-26T01:12:06.796Z,12.77
2023-10-26T01:14:34.282Z,15.13
2023-10-26T01:17:02.269Z,15.65
2023-10-26T01:19:44.194Z,12.07
2023-10-26T01:22:12.000Z,16.67
2023-10-26T01:24:40.305Z,11.93
2023-10-26T01:27:08.078Z,14.30
2023-10-26T01:29:35.509Z,17.45
2023-10-26T01:32:03.011Z,15.43
2023-10-26T01:34:30.301Z,11.63
2023-10-26T01:36:59.482Z,13.27
2023-10-26T01:39:27.020Z,16.42
2023-10-26T01:41:54.686Z,11.50
2023-10-26T01:44:23.789Z,14.35
2023-10-26T01:46:51.521Z,13.35
2023-10-26T01:49:18.908Z,16.88
2023-10-26T01:51:46.274Z,15.73
2023-10-26T01:54:13.654Z,12.10
2023-10-26T01:56:41.987Z,12.18
2023-10-26T01:59:10.145Z,18.58
2023-10-26T02:01:37.624Z,13.27
2023-10-26T02:04:05.037Z,12.98
2023-10-26T02:06:32.500Z,14.48
2023-10-26T02:08:59.926Z,14.75
2023-10-26T02:11:27.252Z,12.25
2023-10-26T02:13:54.759Z,12.13
2023-10-26T02:16:22.088Z,11.68
2023-10-26T02:18:49.634Z,14.32
2023-10-26T02:21:17.346Z,12.40
2023-10-26T02:23:45.871Z,14.48
2023-10-26T02:26:13.366Z,18.40
2023-10-26T02:28:40.674Z,15.43
2023-10-26T02:31:07.954Z,12.85
2023-10-26T02:33:35.391Z,18.65
2023-10-26T02:36:05.687Z,15.63
2023-10-26T02:38:33.242Z,14.15
2023-10-26T02:41:05.114Z,12.40
2023-10-26T02:43:32.690Z,11.85
2023-10-26T02:46:05.785Z,13.90
2023-10-26T02:48:33.758Z,12.95
2023-10-26T02:51:01.260Z,16.45
2023-10-26T02:53:28.651Z,14.07
2023-10-26T02:55:56.047Z,14.00
2023-10-26T02:58:23.390Z,14.73
2023-10-26T03:00:50.708Z,13.30
2023-10-26T03:03:18.069Z,14.00
2023-10-26T03:05:45.501Z,14.23
2023-10-26T03:08:13.084Z,16.23
2023-10-26T03:10:40.620Z,14.13
2023-10-26T03:13:08.259Z,18.50
2023-10-26T03:15:35.575Z,18.83
2023-10-26T03:18:03.032Z,15.50
2023-10-26T03:20:30.845Z,11.50
2023-10-26T03:22:58.161Z,15.18
2023-10-26T03:25:25.559Z,17.65
2023-10-26T03:27:52.862Z,15.05
2023-10-26T03:30:21.278Z,13.32
2023-10-26T03:32:48.670Z,16.15
2023-10-26T03:35:16.491Z,13.25
2023-10-26T03:37:45.083Z,17.30
2023-10-26T03:40:14.647Z,15.35
2023-10-26T03:42:43.543Z,14.38
2023-10-26T03:45:11.255Z,16.38
2023-10-26T03:47:40.796Z,13.13
2023-10-26T03:50:08.781Z,16.63
2023-10-26T03:52:36.226Z,14.13
2023-10-26T03:55:05.097Z,14.27
2023-10-26T03:57:34.654Z,16.10
2023-10-26T04:00:02.040Z,18.40
2023-10-26T04:02:39.089Z,14.05
2023-10-26T04:05:07.451Z,18.30
2023-10-26T04:07:35.271Z,13.68
2023-10-26T04:10:06.841Z,15.85
2023-10-26T04:12:34.285Z,19.10
2023-10-26T04:15:03.029Z,14.52
2023-10-26T04:17:30.553Z,17.90
2023-10-26T04:19:58.550Z,18.38
2023-10-26T04:22:28.370Z,16.20
2023-10-26T04:24:55.638Z,17.98
2023-10-26T04:27:23.122Z,14.88
2023-10-26T04:29:50.457Z,15.57
2023-10-26T04:32:17.798Z,16.13
2023-10-26T04:34:45.745Z,18.60
2023-10-26T04:37:13.336Z,18.10
2023-10-26T04:39:44.552Z,20.60
2023-10-26T04:42:13.683Z,16.98
2023-10-26T04:44:41.842Z,17.38
2023-10-26T04:47:09.611Z,14.25
2023-10-26T04:49:37.035Z,26.85
2023-10-26T04:52:04.455Z,19.20
2023-10-26T04:54:31.821Z,19.83
2023-10-26T04:56:59.102Z,16.48
2023-10-26T04:59:26.325Z,17.95
2023-10-26T05:01:53.826Z,19.38
2023-10-26T05:04:21.065Z,16.52
2023-10-26T05:06:48.582Z,17.58
2023-10-26T05:09:16.174Z,15.80
2023-10-26T05:11:43.543Z,16.73
2023-10-26T05:14:11.886Z,17.90
2023-10-26T05:16:39.318Z,14.57
2023-10-26T05:19:06.762Z,18.50
2023-10-26T05:21:34.060Z,16.40
2023-10-26T05:24:00.896Z,17.67
2023-10-26T05:26:28.441Z,17.73
2023-10-26T05:28:55.253Z,20.92
2023-10-26T05:31:22.097Z,15.70
2023-10-26T05:33:49.052Z,17.88
2023-10-26T05:36:16.513Z,18.58
2023-10-26T05:38:45.893Z,23.42
2023-10-26T05:41:14.160Z,19.85
2023-10-26T05:43:40.990Z,22.33
2023-10-26T05:46:07.929Z,15.88
2023-10-26T05:48:35.328Z,16.38
2023-10-26T05:51:02.382Z,16.75
2023-10-26T05:53:29.318Z,18.15
2023-10-26T05:55:58.596Z,19.00
2023-10-26T05:58:26.674Z,18.85
2023-10-26T06:00:53.751Z,22.27
2023-10-26T06:03:20.782Z,20.98
2023-10-26T06:05:48.693Z,17.23
2023-10-26T06:08:16.531Z,16.05
2023-10-26T06:10:43.705Z,18.02
2023-10-26T06:13:10.713Z,31.63
2023-10-26T06:15:37.917Z,22.50
2023-10-26T06:18:05.058Z,21.35
2023-10-26T06:20:32.008Z,32.03
2023-10-26T06:22:58.864Z,19.80
2023-10-26T06:25:27.625Z,17.23
2023-10-26T06:27:54.538Z,19.73
2023-10-26T06:30:21.586Z,20.45
2023-10-26T06:32:48.421Z,17.42
2023-10-26T06:35:15.378Z,23.05
2023-10-26T06:37:42.269Z,16.30
2023-10-26T06:40:09.924Z,19.45
2023-10-26T06:42:37.557Z,18.08
2023-10-26T06:45:06.620Z,22.88
2023-10-26T06:47:33.595Z,18.50
2023-10-26T06:50:00.562Z,17.38
2023-10-26T06:52:27.433Z,19.60
2023-10-26T06:54:54.244Z,17.88
2023-10-26T06:57:21.186Z,16.83
2023-10-26T06:59:48.066Z,18.98
2023-10-26T07:02:14.897Z,21.83
2023-10-26T07:04:41.903Z,15.63
2023-10-26T07:07:09.293Z,19.33
2023-10-26T07:09:37.694Z,15.60
2023-10-26T07:12:05.650Z,21.08
2023-10-26T07:14:32.785Z,21.55
2023-10-26T07:16:59.937Z,20.83
2023-10-26T07:19:26.756Z,19.10
2023-10-26T07:21:53.518Z,14.50
2023-10-26T07:24:20.342Z,14.00
2023-10-26T07:26:50.475Z,15.77
2023-10-26T07:29:17.368Z,18.13
2023-10-26T07:31:46.830Z,18.55
2023-10-26T07:34:14.713Z,14.60
2023-10-26T07:36:41.697Z,17.35
2023-10-26T07:39:44.725Z,12.85
2023-10-26T07:42:07.423Z,11.73
2023-10-26T07:44:37.732Z,15.25
2023-10-26T07:47:05.734Z,14.48
2023-10-26T07:49:32.501Z,13.35
2023-10-26T07:51:59.349Z,13.13
2023-10-26T07:54:26.406Z,15.07
2023-10-26T07:56:53.238Z,11.95
2023-10-26T07:59:20.110Z,14.73
2023-10-26T08:01:48.820Z,16.40
2023-10-26T08:04:15.808Z,10.93
2023-10-26T08:06:42.610Z,17.60
2023-10-26T08:09:09.500Z,11.23
2023-10-26T08:11:37.081Z,17.50
2023-10-26T08:14:04.079Z,16.60
2023-10-26T08:16:51.299Z,14.00
2023-10-26T08:19:18.490Z,14.90
2023-10-26T08:21:45.381Z,16.63
2023-10-26T08:24:12.221Z,9.82
2023-10-26T08:26:39.399Z,17.77
2023-10-26T08:29:16.060Z,12.10
2023-10-26T08:31:45.743Z,18.27
2023-10-26T08:34:12.656Z,17.38
2023-10-26T08:36:42.214Z,12.27
2023-10-26T08:39:11.543Z,12.57
2023-10-26T08:41:38.440Z,14.57
2023-10-26T08:44:05.551Z,11.95
2023-10-26T08:46:32.811Z,17.65
2023-10-26T08:49:03.435Z,14.00
2023-10-26T08:51:30.366Z,15.77
2023-10-26T08:53:58.375Z,13.57
2023-10-26T08:56:25.552Z,21.05
2023-10-26T08:59:04.048Z,13.43
2023-10-26T09:01:31.024Z,26.10
2023-10-26T09:03:57.918Z,15.95
2023-10-26T09:06:24.742Z,13.70
2023-10-26T09:09:04.698Z,14.70
2023-10-26T09:11:31.574Z,16.38
2023-10-26T09:14:12.826Z,16.27
2023-10-26T09:16:41.615Z,18.55
2023-10-26T09:19:09.131Z,17.05
2023-10-26T09:21:49.265Z,20.92
2023-10-26T09:24:25.993Z,18.50
2023-10-26T09:26:58.039Z,16.35
2023-10-26T09:29:41.191Z,16.05
2023-10-26T09:32:09.717Z,31.27
2023-10-26T09:34:44.661Z,19.85
2023-10-26T09:37:12.892Z,20.88
2023-10-26T09:39:42.588Z,16.33
2023-10-26T09:42:13.065Z,15.13
2023-10-26T09:44:40.176Z,20.08
2023-10-26T09:47:10.000Z,21.38
2023-10-26T09:49:37.055Z,29.13
2023-10-26T09:52:04.330Z,20.80
2023-10-26T09:54:37.238Z,13.40
2023-10-26T09:57:33.390Z,15.40
2023-10-26T10:00:00.816Z,12.35
2023-10-26T10:02:27.842Z,18.08
2023-10-26T10:04:54.618Z,15.95
2023-10-26T10:07:45.089Z,21.23
2023-10-26T10:10:13.898Z,12.30
2023-10-26T10:12:41.538Z,14.38
2023-10-26T10:17:45.857Z,19.55
2023-10-26T10:20:18.498Z,13.77
2023-10-26T10:22:45.621Z,12.53
2023-10-26T10:25:13.570Z,15.05
2023-10-26T10:27:41.754Z,12.65
2023-10-26T10:30:09.727Z,12.90
2023-10-26T10:32:46.088Z,16.17
2023-10-26T10:35:22.469Z,10.95
2023-10-26T10:38:14.493Z,11.35
2023-10-26T10:40:42.322Z,10.05
2023-10-26T10:43:09.784Z,10.73
2023-10-26T10:45:36.757Z,8.05
2023-10-26T10:48:06.172Z,10.07
2023-10-26T10:50:33.112Z,12.13
2023-10-26T10:53:00.032Z,10.68
2023-10-26T10:55:31.697Z,9.52
2023-10-26T10:58:03.134Z,11.85
2023-10-26T11:00:44.286Z,8.43
2023-10-26T11:03:18.735Z,9.20
2023-10-26T11:05:45.888Z,11.23
2023-10-26T11:08:12.831Z,8.93
2023-10-26T11:10:40.047Z,7.80
2023-10-26T11:13:07.078Z,11.05
2023-10-26T11:15:35.843Z,9.65
2023-10-26T11:18:04.721Z,10.00
2023-10-26T11:20:41.906Z,11.82
2023-10-26T11:23:10.487Z,12.95
2023-10-26T11:25:37.746Z,9.15
2023-10-26T11:28:05.519Z,12.68
2023-10-26T11:30:49.807Z,9.60
2023-10-26T11:33:43.344Z,8.57
2023-10-26T11:36:12.099Z,11.82
2023-10-26T11:38:52.243Z,10.20
2023-10-26T11:41:26.753Z,9.68
2023-10-26T11:43:53.590Z,9.18
2023-10-26T11:46:33.528Z,7.70
2023-10-26T11:49:01.813Z,6.28
2023-10-26T11:51:29.389Z,7.45
2023-10-26T11:53:58.002Z,7.25
2023-10-26T11:56:25.024Z,8.05
2023-10-26T11:58:51.867Z,12.02
2023-10-26T12:01:18.680Z,9.20
2023-10-26T12:03:47.281Z,6.38
2023-10-26T12:06:14.456Z,8.80
2023-10-26T12:08:41.555Z,11.10
2023-10-26T12:11:08.410Z,8.05
2023-10-26T12:13:36.784Z,8.38
2023-10-26T12:16:04.006Z,7.30
2023-10-26T12:18:31.043Z,8.57
2023-10-26T12:20:57.964Z,10.98
2023-10-26T12:23:24.849Z,8.38
2023-10-26T12:25:51.751Z,7.53
2023-10-26T12:28:23.837Z,7.88
2023-10-26T12:30:54.616Z,6.35
2023-10-26T12:33:21.691Z,11.38
2023-10-26T12:35:49.177Z,8.73
2023-10-26T12:38:16.404Z,7.00
2023-10-26T12:40:43.334Z,5.43
2023-10-26T12:43:10.354Z,7.82
2023-10-26T12:45:38.134Z,6.28
2023-10-26T12:48:05.290Z,7.30
2023-10-26T12:50:32.181Z,10.02
2023-10-26T12:52:59.088Z,9.68
2023-10-26T12:55:26.103Z,4.07
2023-10-26T12:57:53.987Z,7.13
2023-10-26T13:00:21.703Z,5.97
2023-10-26T13:02:48.606Z,8.10
2023-10-26T13:05:15.562Z,5.90
2023-10-26T13:07:42.418Z,10.02
2023-10-26T13:10:09.588Z,9.57
2023-10-26T13:12:37.740Z,6.43
2023-10-26T13:15:05.966Z,6.35
2023-10-26T13:17:34.072Z,6.15
2023-10-26T13:20:01.405Z,10.80
2023-10-26T13:22:28.328Z,9.98
2023-10-26T13:24:55.121Z,8.52
2023-10-26T13:27:22.207Z,8.38
2023-10-26T13:29:50.113Z,7.38
2023-10-26T13:32:17.035Z,5.53
2023-10-26T13:34:44.202Z,11.43
2023-10-26T13:37:11.138Z,6.85
2023-10-26T13:39:38.580Z,9.30
2023-10-26T13:42:05.679Z,9.35
2023-10-26T13:44:32.493Z,6.68
2023-10-26T13:46:59.242Z,7.30
2023-10-26T13:49:26.002Z,6.22
2023-10-26T13:51:53.092Z,7.05
2023-10-26T13:54:19.830Z,5.15
2023-10-26T13:56:46.960Z,9.27
2023-10-26T13:59:13.906Z,6.10
2023-10-26T14:01:40.947Z,7.05
2023-10-26T14:04:07.876Z,4.47
2023-10-26T14:06:34.836Z,6.55
2023-10-26T14:09:02.235Z,5.38
2023-10-26T14:11:30.843Z,6.47
2023-10-26T14:13:58.397Z,4.97
2023-10-26T14:16:27.224Z,3.95
2023-10-26T14:18:55.227Z,5.45
2023-10-26T14:21:22.734Z,5.05
2023-10-26T14:23:49.608Z,5.70
2023-10-26T14:26:16.789Z,5.57
2023-10-26T14:28:45.304Z,7.18
2023-10-26T14:31:13.281Z,4.68
2023-10-26T14:33:40.178Z,6.85
2023-10-26T14:36:07.336Z,4.45
2023-10-26T14:38:34.345Z,7.40
2023-10-26T14:41:02.017Z,3.67
2023-10-26T14:43:29.603Z,4.65
2023-10-26T14:45:56.610Z,5.88
2023-10-26T14:48:23.609Z,4.57
2023-10-26T14:50:58.860Z,4.57
2023-10-26T14:53:26.454Z,5.50
2023-10-26T14:55:55.279Z,3.65
2023-10-26T14:58:23.263Z,3.47
2023-10-26T15:00:51.557Z,4.03
2023-10-26T15:03:18.439Z,7.30
2023-10-26T15:05:45.954Z,3.20
2023-10-26T15:08:13.020Z,3.47
2023-10-26T15:10:48.590Z,3.58
2023-10-26T15:13:16.380Z,3.58
2023-10-26T15:15:43.987Z,3.30
2023-10-26T15:18:11.347Z,5.88
2023-10-26T15:20:38.289Z,4.38
2023-10-26T15:23:05.137Z,4.38
2023-10-26T15:25:35.745Z,5.25
2023-10-26T15:28:02.576Z,3.08
2023-10-26T15:30:29.432Z,4.35
2023-10-26T15:32:56.334Z,3.70
2023-10-26T15:35:23.188Z,4.50
2023-10-26T15:37:50.851Z,7.13
2023-10-26T15:40:17.736Z,8.82
2023-10-26T15:42:44.638Z,4.70
2023-10-26T15:45:12.610Z,5.72
2023-10-26T15:47:39.827Z,5.43
2023-10-26T15:50:07.241Z,8.52
2023-10-26T15:52:34.291Z,14.43
2023-10-26T15:55:01.081Z,6.50
2023-10-26T15:57:27.956Z,9.82
2023-10-26T15:59:54.793Z,5.47
2023-10-26T16:02:21.631Z,5.82
2023-10-26T16:04:50.608Z,3.83
2023-10-26T16:07:17.488Z,6.43
2023-10-26T16:09:45.390Z,4.80
2023-10-26T16:12:12.362Z,5.15
2023-10-26T16:14:39.094Z,5.07
2023-10-26T16:17:06.005Z,4.28
2023-10-26T16:19:32.913Z,3.33
2023-10-26T16:21:59.697Z,4.35
2023-10-26T16:24:26.461Z,3.92
2023-10-26T16:26:53.303Z,7.55
2023-10-26T16:29:20.022Z,5.75
2023-10-26T16:31:47.132Z,7.35
2023-10-26T16:34:14.184Z,6.95
2023-10-26T16:36:41.008Z,5.45
2023-10-26T16:39:07.856Z,14.90
2023-10-26T16:41:34.653Z,6.53
2023-10-26T16:44:01.424Z,7.68
2023-10-26T16:46:28.379Z,6.95
2023-10-26T16:48:56.876Z,7.88
2023-10-26T16:51:23.749Z,8.48
2023-10-26T16:53:50.561Z,8.15
2023-10-26T16:56:17.355Z,8.10
2023-10-26T16:58:44.076Z,8.45
2023-10-26T17:01:11.727Z,11.27
2023-10-26T17:03:39.265Z,7.82
2023-10-26T17:06:06.414Z,7.88
2023-10-26T17:08:33.278Z,6.38
2023-10-26T17:11:00.382Z,7.90
2023-10-26T17:13:27.308Z,7.97
2023-10-26T17:15:54.933Z,6.57
2023-10-26T17:18:22.836Z,9.13
2023-10-26T17:20:50.430Z,4.82
2023-10-26T17:23:17.337Z,8.23
2023-10-26T17:25:44.270Z,5.35
2023-10-26T17:28:11.317Z,5.22
2023-10-26T17:30:38.329Z,4.18
2023-10-26T17:33:06.828Z,5.30
2023-10-26T17:35:43.648Z,6.72
2023-10-26T17:38:11.244Z,6.65
2023-10-26T17:40:38.282Z,5.43
2023-10-26T17:43:07.077Z,6.97
2023-10-26T17:45:34.505Z,6.53
2023-10-26T17:48:01.905Z,5.05
2023-10-26T17:50:29.057Z,6.00
2023-10-26T17:52:56.043Z,7.50
2023-10-26T17:55:23.159Z,4.38
2023-10-26T17:57:50.285Z,4.85
2023-10-26T18:00:20.151Z,6.07
2023-10-26T18:02:47.200Z,4.35
2023-10-26T18:05:14.607Z,3.83
2023-10-26T18:07:41.464Z,6.13
2023-10-26T18:10:09.391Z,5.75
2023-10-26T18:12:37.038Z,7.85
2023-10-26T18:15:06.724Z,5.15
2023-10-26T18:17:34.144Z,8.90
2023-10-26T18:20:01.111Z,7.30
2023-10-26T18:22:42.183Z,8.02
2023-10-26T18:25:11.298Z,7.38
2023-10-26T18:27:38.677Z,10.15
2023-10-26T18:30:06.608Z,5.57
2023-10-26T18:32:34.077Z,7.43
2023-10-26T18:35:01.350Z,7.22
2023-10-26T18:37:29.365Z,7.50
2023-10-26T18:39:58.027Z,10.77
2023-10-26T18:42:25.682Z,8.68
2023-10-26T18:44:53.532Z,11.43
2023-10-26T18:47:20.955Z,13.73
2023-10-26T18:49:49.718Z,14.00
2023-10-26T18:52:17.202Z,12.23
2023-10-26T18:54:44.525Z,9.10
2023-10-26T18:57:11.911Z,8.75
2023-10-26T18:59:39.582Z,9.20
2023-10-26T19:02:07.425Z,8.98
2023-10-26T19:04:35.055Z,7.78
2023-10-26T19:07:18.388Z,14.55
2023-10-26T19:09:46.125Z,8.57
2023-10-26T19:12:13.827Z,9.43
2023-10-26T19:14:41.231Z,18.23
2023-10-26T19:17:10.588Z,9.40
2023-10-26T19:19:38.154Z,7.28
2023-10-26T19:22:05.913Z,7.13
2023-10-26T19:24:33.186Z,10.15
2023-10-26T19:27:00.477Z,6.97
2023-10-26T19:29:28.049Z,11.65
2023-10-26T19:31:55.459Z,10.00
2023-10-26T19:34:22.820Z,7.40
2023-10-26T19:36:50.177Z,6.72
2023-10-26T19:39:17.363Z,8.73
2023-10-26T19:41:44.606Z,9.85
2023-10-26T19:44:13.969Z,10.27
2023-10-26T19:46:41.263Z,9.95
2023-10-26T19:49:08.715Z,6.57
2023-10-26T19:51:36.021Z,6.93
2023-10-26T19:54:04.782Z,10.35
2023-10-26T19:56:32.066Z,10.98
2023-10-26T19:58:59.380Z,9.50
2023-10-26T20:01:26.802Z,7.30
2023-10-26T20:03:54.313Z,7.18
2023-10-26T20:06:22.264Z,11.88
2023-10-26T20:08:49.570Z,6.60
2023-10-26T20:11:16.898Z,5.22
2023-10-26T20:13:46.070Z,10.40
2023-10-26T20:16:13.503Z,8.57
2023-10-26T20:18:41.540Z,15.75
2023-10-26T20:21:10.363Z,11.40
2023-10-26T20:23:37.755Z,9.38
2023-10-26T20:26:05.100Z,16.33
2023-10-26T20:28:32.371Z,10.45
2023-10-26T20:30:59.696Z,12.48
2023-10-26T20:33:27.101Z,14.73
2023-10-26T20:35:54.462Z,14.00
2023-10-26T20:38:22.043Z,11.43
2023-10-26T20:40:50.907Z,7.70
2023-10-26T20:43:18.299Z,13.50
2023-10-26T20:45:47.501Z,8.50
2023-10-26T20:48:14.878Z,8.20
2023-10-26T20:50:42.572Z,10.30
2023-10-26T20:53:09.893Z,16.50
2023-10-26T20:55:37.130Z,8.85
2023-10-26T20:58:04.464Z,9.98
2023-10-26T21:00:31.889Z,6.60
2023-10-26T21:02:59.160Z,12.00
2023-10-26T21:05:26.602Z,9.82
2023-10-26T21:07:54.287Z,8.93
2023-10-26T21:10:21.754Z,18.85
2023-10-26T21:12:49.128Z,11.52
2023-10-26T21:15:16.466Z,10.02
2023-10-26T21:17:43.862Z,11.45
2023-10-26T21:20:12.518Z,10.80
2023-10-26T21:22:39.790Z,12.52
2023-10-26T21:25:07.409Z,8.48
2023-10-26T21:27:36.715Z,9.50
2023-10-26T21:30:04.490Z,15.68
2023-10-26T21:32:31.957Z,13.73
2023-10-26T21:34:59.542Z,11.60
2023-10-26T21:37:26.820Z,7.82
2023-10-26T21:39:54.190Z,16.80
2023-10-26T21:42:23.208Z,12.20
2023-10-26T21:44:52.506Z,6.70
2023-10-26T21:47:19.742Z,12.27
2023-10-26T21:49:47.038Z,8.02
2023-10-26T21:52:14.506Z,8.25
2023-10-26T21:54:42.475Z,9.30
2023-10-26T21:57:09.698Z,9.45
2023-10-26T21:59:36.987Z,9.80
2023-10-26T22:02:07.727Z,16.85
2023-10-26T22:04:35.525Z,11.68
2023-10-26T22:07:03.576Z,11.88
2023-10-26T22:09:33.659Z,10.88
2023-10-26T22:12:03.414Z,11.68
2023-10-26T22:14:33.246Z,12.10
2023-10-26T22:17:00.760Z,15.88
2023-10-26T22:19:28.050Z,12.98
2023-10-26T22:21:55.411Z,10.57
2023-10-26T22:24:22.731Z,9.32
2023-10-26T22:26:50.094Z,18.00
2023-10-26T22:29:29.450Z,12.48
2023-10-26T22:31:58.929Z,9.60
2023-10-26T22:34:26.351Z,6.10
2023-10-26T22:36:53.752Z,16.30
2023-10-26T22:39:21.087Z,12.65
2023-10-26T22:41:49.039Z,8.05
2023-10-26T22:44:16.315Z,10.63
2023-10-26T22:46:43.589Z,15.88
2023-10-26T22:49:11.146Z,9.32
2023-10-26T22:51:38.750Z,7.57
2023-10-26T22:54:06.079Z,18.38
2023-10-26T22:56:33.398Z,8.57
2023-10-26T22:59:00.719Z,6.28
2023-10-26T23:01:28.008Z,5.97
2023-10-26T23:03:55.396Z,14.00
2023-10-26T23:06:23.856Z,8.63
2023-10-26T23:08:51.287Z,14.40
2023-10-26T23:11:18.513Z,15.93
2023-10-26T23:13:45.799Z,7.93
2023-10-26T23:16:13.072Z,9.77
2023-10-26T23:18:40.582Z,5.22
2023-10-26T23:21:07.978Z,5.95
2023-10-26T23:23:39.483Z,10.00
2023-10-26T23:26:10.157Z,7.43
2023-10-26T23:28:38.049Z,6.53
2023-10-26T23:31:12.183Z,10.65
2023-10-26T23:33:40.173Z,6.90
2023-10-26T23:36:08.227Z,5.90
2023-10-26T23:38:39.000Z,11.55
2023-10-26T23:41:07.181Z,15.85
2023-10-26T23:43:35.076Z,9.77
2023-10-26T23:46:05.731Z,10.40
2023-10-26T23:48:33.262Z,11.68
2023-10-26T23:51:00.569Z,6.70
2023-10-26T23:53:28.358Z,10.23
2023-10-26T23:55:55.721Z,7.38
2023-10-26T23:58:23.418Z,9.43
